Time;durP1;ratioP1;P1;durP2;ratioP2;P2;SDS_P1;SDS_P2;PMS_P1;PMS_P2;Temp;Humidity;BMP_temperature;BMP_pressure;BME280_temperature;BME280_humidity;BME280_pressure;Samples;Min_cycle;Max_cycle;Signal;HPM_P1;HPM_P2
2022/03/18 00:00:23;;;;;;;;;;;;;;;0.42;100.00;103859.84;5229815;28;19913;-54
2022/03/18 00:02:53;;;;;;;;;;;;;;;0.42;100.00;103865.16;5230432;28;19920;-53
2022/03/18 00:08:31;;;;;;;;;;;;;;;0.46;100.00;103878.09;5248558;28;19935;-53
2022/03/18 00:11:02;;;;;;;;;;;;;;;0.47;100.00;103879.78;5230002;28;19912;-55
2022/03/18 00:13:32;;;;;;;;;;;;;;;0.42;100.00;103881.09;5230747;28;19927;-53
2022/03/18 00:16:02;;;;;;;;;;;;;;;0.37;100.00;103888.56;5230986;28;19916;-54
2022/03/18 00:18:33;;;;;;;;;;;;;;;0.33;100.00;103896.75;5231122;28;19923;-53
2022/03/18 00:21:06;;;;;;;;;;;;;;;0.32;100.00;103891.56;5231075;28;20001;-54
2022/03/18 00:23:37;;;;;;;;;;;;;;;0.32;100.00;103892.41;5230766;28;19919;-53
2022/03/18 00:26:07;;;;;;;;;;;;;;;0.37;100.00;103896.53;5230838;28;19912;-54
2022/03/18 00:28:39;;;;;;;;;;;;;;;0.41;100.00;103898.84;5230965;28;19939;-54
2022/03/18 00:31:09;;;;;;;;;;;;;;;0.41;100.00;103893.53;5230917;28;20359;-55
2022/03/18 00:33:39;;;;;;;;;;;;;;;0.38;100.00;103891.09;5230377;28;20007;-53
2022/03/18 00:36:10;;;;;;;;;;;;;;;0.28;100.00;103901.59;5230700;28;19912;-53
2022/03/18 00:38:40;;;;;;;;;;;;;;;0.15;100.00;103899.94;5230752;28;19912;-54
2022/03/18 00:41:11;;;;;;;;;;;;;;;0.08;100.00;103909.31;5230726;28;20292;-57
2022/03/18 00:43:41;;;;;;;;;;;;;;;0.07;100.00;103918.25;5230362;28;19912;-55
2022/03/18 00:46:11;;;;;;;;;;;;;;;0.08;100.00;103919.94;5230415;28;19913;-56
2022/03/18 00:54:20;;;;;;;;;;;;;;;-0.04;100.00;103909.28;5248417;28;20351;-54
2022/03/18 00:56:50;;;;;;;;;;;;;;;-0.04;100.00;103916.41;5248155;28;19991;-55
2022/03/18 00:59:20;;;;;;;;;;;;;;;-0.06;100.00;103916.50;5230266;28;19966;-55
2022/03/18 01:01:52;;;;;;;;;;;;;;;-0.14;100.00;103924.19;5230147;28;19912;-54
2022/03/18 01:04:23;;;;;;;;;;;;;;;-0.26;100.00;103925.03;5230005;28;19920;-54
2022/03/18 01:06:54;;;;;;;;;;;;;;;-0.31;100.00;103929.00;5230333;28;20295;-55
2022/03/18 01:09:25;;;;;;;;;;;;;;;-0.35;100.00;103918.59;5230189;28;20002;-55
2022/03/18 01:11:56;;;;;;;;;;;;;;;-0.38;100.00;103931.25;5229850;28;19917;-54
2022/03/18 01:14:26;;;;;;;;;;;;;;;-0.39;100.00;103926.88;5229843;28;19978;-55
2022/03/18 01:16:56;;;;;;;;;;;;;;;-0.40;100.00;103935.81;5229978;28;19912;-55
2022/03/18 01:19:27;;;;;;;;;;;;;;;-0.35;100.00;103934.53;5229762;28;19939;-54
2022/03/18 01:21:57;;;;;;;;;;;;;;;-0.27;100.00;103933.13;5248141;28;19935;-56
2022/03/18 01:24:27;;;;;;;;;;;;;;;-0.17;100.00;103926.19;5247712;28;19919;-55
2022/03/18 01:26:58;;;;;;;;;;;;;;;-0.12;100.00;103924.91;5229928;28;19999;-54
2022/03/18 01:29:28;;;;;;;;;;;;;;;-0.15;100.00;103933.09;5229835;28;19913;-55
2022/03/18 01:31:59;;;;;;;;;;;;;;;-0.17;100.00;103929.69;5229370;28;20024;-54
2022/03/18 01:34:29;;;;;;;;;;;;;;;-0.18;100.00;103919.19;5229572;28;19965;-53
2022/03/18 01:36:59;;;;;;;;;;;;;;;-0.23;100.00;103921.31;5229717;28;19970;-56
2022/03/18 01:39:30;;;;;;;;;;;;;;;-0.28;100.00;103918.13;5247865;28;19936;-55
2022/03/18 01:42:00;;;;;;;;;;;;;;;-0.36;100.00;103916.91;5247831;28;19912;-55
2022/03/18 01:44:37;;;;;;;;;;;;;;;-0.41;100.00;103915.53;5229269;28;20011;-54
2022/03/18 01:47:08;;;;;;;;;;;;;;;-0.52;100.00;103923.38;5229624;28;19913;-55
2022/03/18 01:49:39;;;;;;;;;;;;;;;-0.61;100.00;103932.88;5229660;28;19920;-55
2022/03/18 01:52:10;;;;;;;;;;;;;;;-0.70;100.00;103928.19;5247604;28;20041;-54
2022/03/18 01:54:49;;;;;;;;;;;;;;;-0.74;100.00;103932.88;5229398;28;20006;-54
2022/03/18 01:57:22;;;;;;;;;;;;;;;-0.80;100.00;103935.09;5229727;28;19913;-55
2022/03/18 01:59:52;;;;;;;;;;;;;;;-0.78;100.00;103938.47;5229543;28;19920;-53
2022/03/18 02:02:23;;;;;;;;;;;;;;;-0.80;100.00;103943.91;5225323;28;19917;-55
2022/03/18 02:04:53;;;;;;;;;;;;;;;-0.83;100.00;103948.56;5226469;28;19939;-55
2022/03/18 02:07:23;;;;;;;;;;;;;;;-0.89;100.00;103941.03;5225390;28;19935;-56
2022/03/18 02:09:55;;;;;;;;;;;;;;;-0.91;100.00;103945.59;5225394;28;19913;-57
2022/03/18 02:12:25;;;;;;;;;;;;;;;-0.90;100.00;103948.16;5225241;28;20014;-56
2022/03/18 02:14:56;;;;;;;;;;;;;;;-0.90;100.00;103950.81;5225123;28;20369;-55
2022/03/18 02:17:26;;;;;;;;;;;;;;;-0.93;100.00;103950.16;5225308;28;19919;-57
2022/03/18 02:19:56;;;;;;;;;;;;;;;-0.97;100.00;103952.16;5225000;28;19919;-56
2022/03/18 02:22:28;;;;;;;;;;;;;;;-0.98;100.00;103955.78;5227548;28;20349;-55
2022/03/18 02:24:58;;;;;;;;;;;;;;;-1.02;100.00;103948.97;5228949;28;19919;-56
2022/03/18 02:27:28;;;;;;;;;;;;;;;-1.01;100.00;103950.69;5229183;28;20011;-56
2022/03/18 02:29:59;;;;;;;;;;;;;;;-0.99;100.00;103958.53;5229040;28;19919;-55
2022/03/18 02:32:30;;;;;;;;;;;;;;;-1.02;100.00;103947.19;5228991;28;20289;-59
2022/03/18 02:35:01;;;;;;;;;;;;;;;-1.05;100.00;103957.13;5229154;28;20311;-55
2022/03/18 02:37:31;;;;;;;;;;;;;;;-1.11;100.00;103949.59;5229250;28;20289;-56
2022/03/18 02:40:02;;;;;;;;;;;;;;;-1.14;100.00;103961.25;5228971;28;19912;-55
2022/03/18 02:42:32;;;;;;;;;;;;;;;-1.11;100.00;103962.84;5228923;28;20007;-53
2022/03/18 02:45:03;;;;;;;;;;;;;;;-1.03;100.00;103960.53;5228860;28;20185;-53
2022/03/18 02:47:33;;;;;;;;;;;;;;;-0.98;100.00;103961.09;5228951;28;19936;-56
2022/03/18 02:50:05;;;;;;;;;;;;;;;-0.85;100.00;103959.28;5228714;28;19920;-55
2022/03/18 02:52:36;;;;;;;;;;;;;;;-0.76;100.00;103965.75;5228618;28;19943;-55
2022/03/18 02:55:06;;;;;;;;;;;;;;;-0.77;100.00;103958.75;5228554;28;19913;-55
2022/03/18 02:57:40;;;;;;;;;;;;;;;-0.83;100.00;103957.38;5228515;28;20377;-56
2022/03/18 03:00:10;;;;;;;;;;;;;;;-0.94;100.00;103957.28;5228475;28;20007;-56
2022/03/18 03:02:41;;;;;;;;;;;;;;;-1.06;100.00;103964.25;5228353;28;20047;-53
2022/03/18 03:08:00;;;;;;;;;;;;;;;-1.14;100.00;103986.91;5229879;28;20068;-56
2022/03/18 03:10:32;;;;;;;;;;;;;;;-1.11;100.00;103992.88;5228704;28;19912;-56
2022/03/18 03:13:05;;;;;;;;;;;;;;;-0.94;100.00;103991.75;5229335;28;19917;-54
2022/03/18 03:15:36;;;;;;;;;;;;;;;-0.88;100.00;103998.44;5228216;28;19919;-55
2022/03/18 03:18:07;;;;;;;;;;;;;;;-0.88;100.00;104001.09;5228500;28;20314;-55
2022/03/18 03:20:38;;;;;;;;;;;;;;;-0.87;100.00;104003.66;5228332;28;19947;-56
2022/03/18 03:23:09;;;;;;;;;;;;;;;-0.89;100.00;104002.91;5228225;28;20397;-56
2022/03/18 03:25:40;;;;;;;;;;;;;;;-0.90;100.00;104006.50;5228245;28;19956;-55
2022/03/18 03:28:10;;;;;;;;;;;;;;;-0.97;100.00;103999.91;5228073;28;19971;-56
2022/03/18 03:30:40;;;;;;;;;;;;;;;-0.96;100.00;104011.38;5228048;28;19912;-54
2022/03/18 03:33:11;;;;;;;;;;;;;;;-0.99;100.00;104008.94;5227462;28;19917;-56
2022/03/18 03:35:41;;;;;;;;;;;;;;;-1.06;100.00;104011.97;5228426;28;19916;-55
2022/03/18 03:38:14;;;;;;;;;;;;;;;-1.17;100.00;104013.66;5228200;28;19913;-55
2022/03/18 03:40:45;;;;;;;;;;;;;;;-1.28;100.00;104021.47;5227764;28;19919;-53
2022/03/18 03:43:15;;;;;;;;;;;;;;;-1.36;100.00;104014.00;5227477;28;19913;-55
2022/03/18 03:45:45;;;;;;;;;;;;;;;-1.40;100.00;104023.97;5227645;28;19920;-55
2022/03/18 03:48:16;;;;;;;;;;;;;;;-1.42;100.00;104022.34;5227647;28;19912;-53
2022/03/18 03:50:46;;;;;;;;;;;;;;;-1.44;100.00;104035.72;5227468;28;19913;-54
2022/03/18 03:53:16;;;;;;;;;;;;;;;-1.48;100.00;104036.03;5227317;28;19959;-54
2022/03/18 03:55:47;;;;;;;;;;;;;;;-1.51;100.00;104038.88;5227535;28;19913;-55
2022/03/18 03:58:17;;;;;;;;;;;;;;;-1.51;100.00;104036.22;5227459;28;19974;-54
2022/03/18 04:00:47;;;;;;;;;;;;;;;-1.55;100.00;104030.25;5227343;28;19919;-55
2022/03/18 04:03:18;;;;;;;;;;;;;;;-1.58;100.00;104032.25;5252838;23;19946;-82
2022/03/18 04:05:48;;;;;;;;;;;;;;;-1.66;100.00;104031.88;5264118;28;20399;-82
2022/03/18 04:08:18;;;;;;;;;;;;;;;-1.71;100.00;104034.84;5279794;28;19912;-83
2022/03/18 04:10:49;;;;;;;;;;;;;;;-1.75;100.00;104039.50;5261243;28;19919;-81
2022/03/18 04:13:19;;;;;;;;;;;;;;;-1.74;100.00;104041.19;5251955;28;19920;-83
2022/03/18 04:15:49;;;;;;;;;;;;;;;-1.72;100.00;104049.88;5258559;28;19918;-82
2022/03/18 04:18:20;;;;;;;;;;;;;;;-1.60;100.00;104050.91;5239797;28;19943;-83
2022/03/18 04:20:50;;;;;;;;;;;;;;;-1.46;100.00;104055.34;5256897;28;19919;-84
2022/03/18 04:23:20;;;;;;;;;;;;;;;-1.43;100.00;104060.41;5257513;28;19919;-83
2022/03/18 04:25:51;;;;;;;;;;;;;;;-1.36;100.00;104077.63;5239486;28;19912;-83
2022/03/18 04:28:21;;;;;;;;;;;;;;;-1.29;100.00;104064.84;5257036;28;20378;-82
2022/03/18 04:30:51;;;;;;;;;;;;;;;-1.29;100.00;104064.84;5257872;28;19913;-81
2022/03/18 04:33:22;;;;;;;;;;;;;;;-1.32;100.00;104072.97;5256208;28;19920;-81
2022/03/18 04:35:52;;;;;;;;;;;;;;;-1.30;100.00;104079.91;5239239;28;19913;-82
2022/03/18 04:38:23;;;;;;;;;;;;;;;-1.31;100.00;104085.28;5239872;28;20011;-82
2022/03/18 04:40:54;;;;;;;;;;;;;;;-1.37;100.00;104092.69;5239014;28;19975;-81
2022/03/18 04:43:24;;;;;;;;;;;;;;;-1.37;100.00;104094.47;5257161;28;19959;-81
2022/03/18 04:45:55;;;;;;;;;;;;;;;-1.37;100.00;104087.38;5238602;28;19965;-84
2022/03/18 04:48:25;;;;;;;;;;;;;;;-1.38;100.00;104084.81;5239499;28;19963;-83
2022/03/18 04:50:56;;;;;;;;;;;;;;;-1.42;100.00;104076.22;5241033;28;19998;-83
2022/03/18 04:53:27;;;;;;;;;;;;;;;-1.47;100.00;104078.34;5241300;28;20325;-82
2022/03/18 04:55:57;;;;;;;;;;;;;;;-1.55;100.00;104088.56;5259752;28;19912;-82
2022/03/18 04:58:27;;;;;;;;;;;;;;;-1.62;100.00;104084.59;5259253;28;19974;-83
2022/03/18 05:00:58;;;;;;;;;;;;;;;-1.70;100.00;104086.88;5258803;28;19912;-83
2022/03/18 05:03:28;;;;;;;;;;;;;;;-1.77;100.00;104089.06;5256020;28;19916;-83
2022/03/18 05:05:58;;;;;;;;;;;;;;;-1.82;100.00;104082.34;5239181;28;19912;-83
2022/03/18 05:08:29;;;;;;;;;;;;;;;-1.85;100.00;104090.50;5238831;28;19913;-85
2022/03/18 05:10:59;;;;;;;;;;;;;;;-1.89;100.00;104096.91;5257667;28;19912;-83
2022/03/18 05:13:29;;;;;;;;;;;;;;;-1.91;100.00;104102.31;5239327;28;19916;-83
2022/03/18 05:16:00;;;;;;;;;;;;;;;-1.93;100.00;104098.06;5257886;28;19912;-81
2022/03/18 05:18:30;;;;;;;;;;;;;;;-1.89;100.00;104103.06;5221420;28;19920;-85
2022/03/18 05:21:00;;;;;;;;;;;;;;;-1.87;100.00;104113.56;5221942;28;19912;-85
2022/03/18 05:23:32;;;;;;;;;;;;;;;-1.90;100.00;104114.63;5240376;28;20389;-85
2022/03/18 05:26:03;;;;;;;;;;;;;;;-1.94;100.00;104107.78;5217812;28;19913;-84
2022/03/18 05:28:33;;;;;;;;;;;;;;;-1.95;100.00;104108.75;5216950;28;19920;-86
2022/03/18 05:31:04;;;;;;;;;;;;;;;-1.95;100.00;104121.13;5217543;28;19913;-85
2022/03/18 05:33:34;;;;;;;;;;;;;;;-1.94;100.00;104125.47;5218207;28;19919;-86
2022/03/18 05:36:04;;;;;;;;;;;;;;;-1.92;100.00;104127.09;5236791;28;20370;-85
2022/03/18 05:38:35;;;;;;;;;;;;;;;-1.90;100.00;104129.66;5233845;28;19912;-84
2022/03/18 05:41:05;;;;;;;;;;;;;;;-2.12;100.00;104096.53;5251744;28;20340;-84
2022/03/18 05:43:36;;;;;;;;;;;;;;;-1.94;100.00;104142.22;5259761;28;19920;-85
2022/03/18 05:46:07;;;;;;;;;;;;;;;-2.00;100.00;104134.66;5260689;28;19913;-84
2022/03/18 05:48:37;;;;;;;;;;;;;;;-2.00;100.00;104133.78;5260750;28;19927;-85
2022/03/18 05:51:08;;;;;;;;;;;;;;;-2.01;100.00;104132.94;5260516;28;19948;-84
2022/03/18 05:53:38;;;;;;;;;;;;;;;-2.00;100.00;104133.78;5242192;28;20050;-84
2022/03/18 05:59:06;;;;;;;;;;;;;;;-2.02;100.00;104135.72;5232547;28;19912;-86
2022/03/18 06:01:41;;;;;;;;;;;;;;;-1.99;100.00;104132.84;5265484;28;19951;-85
2022/03/18 06:04:11;;;;;;;;;;;;;;;-1.96;100.00;104143.25;5263140;28;19916;-85
2022/03/18 06:06:43;;;;;;;;;;;;;;;-1.92;100.00;104136.84;5247237;28;19919;-85
2022/03/18 06:12:04;;;;;;;;;;;;;;;-1.82;100.00;104144.13;5265598;28;19923;-84
2022/03/18 06:14:35;;;;;;;;;;;;;;;-1.78;100.00;104136.84;5246720;28;19913;-84
2022/03/18 06:17:05;;;;;;;;;;;;;;;-1.72;100.00;104144.41;5245940;28;19912;-86
2022/03/18 06:19:35;;;;;;;;;;;;;;;-1.66;100.00;104149.31;5244885;28;19912;-86
2022/03/18 06:22:08;;;;;;;;;;;;;;;-1.61;100.00;104149.91;5245373;28;19919;-84
2022/03/18 06:24:38;;;;;;;;;;;;;;;-1.55;100.00;104152.16;5264157;28;19943;-84
2022/03/18 06:27:09;;;;;;;;;;;;;;;-1.46;100.00;104142.81;5246300;28;19912;-84
2022/03/18 06:29:43;;;;;;;;;;;;;;;-1.29;100.00;104157.63;5247766;28;19932;-86
2022/03/18 06:32:13;;;;;;;;;;;;;;;-0.93;100.00;104155.28;5242692;28;19916;-84
2022/03/18 06:34:43;;;;;;;;;;;;;;;-0.52;100.00;104164.94;5243440;28;19923;-85
2022/03/18 06:37:13;;;;;;;;;;;;;;;-0.22;100.00;104167.34;5242948;28;19912;-84
2022/03/18 06:39:44;;;;;;;;;;;;;;;-0.06;100.00;104171.53;5243256;28;19934;-85
2022/03/18 06:42:14;;;;;;;;;;;;;;;0.06;100.00;104172.47;5262101;28;19912;-85
2022/03/18 06:44:44;;;;;;;;;;;;;;;0.19;100.00;104173.34;5244351;28;19980;-84
2022/03/18 06:47:14;;;;;;;;;;;;;;;0.30;100.00;104180.53;5243910;28;19983;-86
2022/03/18 06:49:47;;;;;;;;;;;;;;;0.36;100.00;104182.78;5242132;28;20210;-84
2022/03/18 06:52:17;;;;;;;;;;;;;;;0.41;100.00;104185.97;5242783;28;19921;-87
2022/03/18 06:54:50;;;;;;;;;;;;;;;0.51;100.00;104183.53;5261009;28;19966;-88
2022/03/18 06:57:21;;;;;;;;;;;;;;;0.56;100.00;104181.41;5259243;28;19913;-84
2022/03/18 06:59:51;;;;;;;;;;;;;;;0.63;100.00;104186.16;5238683;28;19917;-83
2022/03/18 07:02:21;;;;;;;;;;;;;;;0.30;100.00;104120.25;5256738;28;19926;-83
2022/03/18 07:04:52;;;;;;;;;;;;;;;0.85;100.00;104176.66;5239023;28;19919;-83
2022/03/18 07:07:22;;;;;;;;;;;;;;;1.01;100.00;104183.41;5239246;28;19912;-83
2022/03/18 07:09:52;;;;;;;;;;;;;;;1.19;100.00;104181.19;5256535;28;19912;-84
2022/03/18 07:12:23;;;;;;;;;;;;;;;1.37;100.00;104176.34;5261686;28;19924;-84
2022/03/18 07:14:53;;;;;;;;;;;;;;;1.56;100.00;104187.31;5245537;28;19963;-84
2022/03/18 07:20:13;;;;;;;;;;;;;;;1.89;100.00;104189.25;5262690;28;19944;-84
2022/03/18 07:22:44;;;;;;;;;;;;;;;2.03;100.00;104199.69;5262927;28;19923;-82
2022/03/18 07:25:14;;;;;;;;;;;;;;;2.11;100.00;104195.56;5263739;28;20100;-82
2022/03/18 07:27:44;;;;;;;;;;;;;;;2.16;100.00;104191.59;5263327;28;20003;-83
2022/03/18 07:30:14;;;;;;;;;;;;;;;2.20;100.00;104197.53;5263945;28;19913;-83
2022/03/18 07:32:45;;;;;;;;;;;;;;;2.29;100.00;104205.69;5264182;28;19917;-83
2022/03/18 07:35:15;;;;;;;;;;;;;;;2.38;100.00;104207.63;5264150;28;19918;-83
2022/03/18 07:37:48;;;;;;;;;;;;;;;2.44;100.00;104211.63;5263687;28;19912;-84
2022/03/18 07:40:21;;;;;;;;;;;;;;;2.50;100.00;104218.31;5244174;28;19948;-84
2022/03/18 07:42:52;;;;;;;;;;;;;;;2.54;100.00;104220.63;5244539;28;19912;-82
2022/03/18 07:45:28;;;;;;;;;;;;;;;2.68;100.00;104222.19;5258784;28;19935;-82
2022/03/18 07:48:00;;;;;;;;;;;;;;;2.77;100.00;104240.13;5242236;28;19916;-81
2022/03/18 07:50:31;;;;;;;;;;;;;;;2.83;100.00;104241.47;5240117;28;19928;-84
2022/03/18 07:53:03;;;;;;;;;;;;;;;2.91;100.00;104241.69;5258912;28;19916;-86
2022/03/18 07:55:34;;;;;;;;;;;;;;;2.97;100.00;104244.72;5243974;28;19913;-83
2022/03/18 07:58:06;;;;;;;;;;;;;;;3.02;100.00;104247.88;5243915;28;20310;-83
2022/03/18 08:00:36;;;;;;;;;;;;;;;3.14;100.00;104242.53;5262068;28;19917;-82
2022/03/18 08:03:07;;;;;;;;;;;;;;;3.30;100.00;104240.31;5262157;28;19928;-82
2022/03/18 08:05:37;;;;;;;;;;;;;;;3.50;100.00;104252.88;5244016;28;19917;-83
2022/03/18 08:08:08;;;;;;;;;;;;;;;3.65;100.00;104238.25;5244452;28;19962;-85
2022/03/18 08:10:38;;;;;;;;;;;;;;;3.76;100.00;104241.84;5249317;28;19900;-83
2022/03/18 08:13:08;;;;;;;;;;;;;;;3.89;100.00;104248.72;5250145;28;20124;-85
2022/03/18 08:15:39;;;;;;;;;;;;;;;4.03;100.00;104251.09;5267884;28;19928;-82
2022/03/18 08:18:10;;;;;;;;;;;;;;;4.17;100.00;104247.22;5249361;28;19922;-86
2022/03/18 08:20:40;;;;;;;;;;;;;;;4.38;100.00;104247.19;5255491;28;20261;-83
2022/03/18 08:23:14;;;;;;;;;;;;;;;4.55;100.00;104260.00;5234240;28;19912;-84
2022/03/18 08:25:44;;;;;;;;;;;;;;;4.80;100.00;104249.81;5234771;28;19981;-84
2022/03/18 08:28:14;;;;;;;;;;;;;;;5.02;100.00;104249.59;5253387;28;19913;-84
2022/03/18 08:30:45;;;;;;;;;;;;;;;5.15;100.00;104255.59;5237491;28;19912;-84
2022/03/18 08:33:15;;;;;;;;;;;;;;;5.29;100.00;104247.13;5255064;28;20314;-85
2022/03/18 08:35:45;;;;;;;;;;;;;;;5.48;100.00;104250.84;5241605;28;19917;-84
2022/03/18 08:38:16;;;;;;;;;;;;;;;5.72;100.00;104259.34;5243459;28;20348;-82
2022/03/18 08:40:46;;;;;;;;;;;;;;;5.91;100.00;104258.50;5247388;28;20337;-82
2022/03/18 08:43:16;;;;;;;;;;;;;;;6.06;100.00;104263.28;5265391;28;19913;-82
2022/03/18 08:45:47;;;;;;;;;;;;;;;6.28;100.00;104269.34;5247561;28;19928;-83
2022/03/18 08:48:17;;;;;;;;;;;;;;;6.47;100.00;104273.81;5246817;28;20014;-83
2022/03/18 08:50:48;;;;;;;;;;;;;;;6.62;100.00;104275.06;5243167;28;19913;-83
2022/03/18 08:53:18;;;;;;;;;;;;;;;6.80;100.00;104277.81;5242295;28;20369;-83
2022/03/18 08:55:48;;;;;;;;;;;;;;;6.94;100.00;104271.94;5260290;28;20328;-84
2022/03/18 08:58:20;;;;;;;;;;;;;;;7.10;100.00;104274.84;5243248;28;19979;-85
2022/03/18 09:00:50;;;;;;;;;;;;;;;7.21;100.00;104282.72;5259859;28;19913;-82
2022/03/18 09:03:20;;;;;;;;;;;;;;;7.44;100.00;104288.53;5260771;28;19917;-82
2022/03/18 09:05:51;;;;;;;;;;;;;;;7.61;100.00;104286.84;5243464;28;19959;-84
2022/03/18 09:08:21;;;;;;;;;;;;;;;7.69;100.00;104289.63;5245578;28;19912;-81
2022/03/18 09:10:51;;;;;;;;;;;;;;;7.72;100.00;104297.38;5266613;28;19971;-83
2022/03/18 09:13:22;;;;;;;;;;;;;;;7.88;100.00;104296.69;5267224;28;20106;-83
2022/03/18 09:15:52;;;;;;;;;;;;;;;8.01;100.00;104303.38;5250078;28;19913;-82
2022/03/18 09:18:22;;;;;;;;;;;;;;;8.17;100.00;104297.28;5265346;28;19951;-80
2022/03/18 09:20:52;;;;;;;;;;;;;;;8.31;100.00;104306.66;5265881;28;19901;-83
2022/03/18 09:23:23;;;;;;;;;;;;;;;8.55;100.00;104303.31;5247987;28;19912;-81
2022/03/18 09:25:54;;;;;;;;;;;;;;;8.75;100.00;104311.00;5248044;28;19928;-81
2022/03/18 09:28:24;;;;;;;;;;;;;;;8.97;100.00;104306.91;5248901;28;19912;-83
2022/03/18 09:30:54;;;;;;;;;;;;;;;9.10;100.00;104310.03;5245162;28;20268;-83
2022/03/18 09:33:25;;;;;;;;;;;;;;;9.17;100.00;104315.63;5237569;28;20014;-84
2022/03/18 09:35:55;;;;;;;;;;;;;;;9.26;100.00;104311.94;5238202;28;19912;-83
2022/03/18 09:38:25;;;;;;;;;;;;;;;9.50;100.00;104313.03;5238799;28;19912;-84
2022/03/18 09:40:56;;;;;;;;;;;;;;;9.68;100.00;104309.19;5237302;28;19948;-84
2022/03/18 09:43:31;;;;;;;;;;;;;;;9.81;100.00;104303.31;5253898;28;19913;-84
2022/03/18 09:46:04;;;;;;;;;;;;;;;9.90;93.86;104302.31;5254920;28;19925;-83
2022/03/18 09:48:35;;;;;;;;;;;;;;;9.96;90.93;104307.03;5254513;28;19920;-82
2022/03/18 09:51:06;;;;;;;;;;;;;;;10.00;88.65;104311.09;5254543;28;19913;-84
2022/03/18 09:53:36;;;;;;;;;;;;;;;10.11;88.19;104312.59;5236449;28;19916;-84
2022/03/18 09:56:07;;;;;;;;;;;;;;;10.22;87.59;104319.56;5254047;28;20420;-84
2022/03/18 09:58:37;;;;;;;;;;;;;;;10.22;86.13;104322.25;5256916;28;19916;-84
2022/03/18 10:01:08;;;;;;;;;;;;;;;10.28;87.16;104313.47;5255905;28;19954;-83
2022/03/18 10:03:39;;;;;;;;;;;;;;;10.31;85.69;104310.44;5266855;22;19974;-55
2022/03/18 10:06:12;;;;;;;;;;;;;;;10.40;85.40;104312.09;5205673;28;19921;-57
2022/03/18 10:08:43;;;;;;;;;;;;;;;10.37;84.55;104317.88;5207608;28;19913;-56
2022/03/18 10:11:13;;;;;;;;;;;;;;;10.42;87.31;104323.59;5207473;28;19913;-56
2022/03/18 10:13:52;;;;;;;;;;;;;;;10.49;86.48;104322.75;5207875;28;19913;-56
2022/03/18 10:16:36;;;;;;;;;;;;;;;10.48;86.23;104325.63;5207732;28;19913;-55
2022/03/18 10:19:06;;;;;;;;;;;;;;;10.46;85.86;104324.94;5207884;28;19936;-56
2022/03/18 10:21:56;;;;;;;;;;;;;;;10.43;85.62;104317.19;5207857;28;19913;-56
2022/03/18 10:24:31;;;;;;;;;;;;;;;10.64;86.16;104325.63;5207070;28;19913;-57
2022/03/18 10:27:15;;;;;;;;;;;;;;;10.81;84.40;104321.84;5207227;28;19936;-57
2022/03/18 10:29:46;;;;;;;;;;;;;;;11.06;87.11;104321.75;5207595;28;19956;-57
2022/03/18 10:32:18;;;;;;;;;;;;;;;11.23;82.26;104312.56;5207580;28;19948;-57
2022/03/18 10:37:42;;;;;;;;;;;;;;;11.16;79.21;104312.44;5226532;28;20042;-56
2022/03/18 10:40:13;;;;;;;;;;;;;;;11.23;78.98;104319.84;5207486;28;19912;-56
2022/03/18 10:42:56;;;;;;;;;;;;;;;11.22;77.76;104316.31;5209089;28;19966;-57
2022/03/18 10:45:26;;;;;;;;;;;;;;;11.33;77.57;104312.34;5212276;28;19920;-56
2022/03/18 10:48:15;;;;;;;;;;;;;;;11.37;78.31;104314.53;5212400;28;19912;-56
2022/03/18 10:51:00;;;;;;;;;;;;;;;11.52;79.65;104319.19;5212226;28;20331;-56
2022/03/18 10:53:31;;;;;;;;;;;;;;;11.51;77.16;104323.75;5228847;28;19931;-56
2022/03/18 10:56:02;;;;;;;;;;;;;;;11.56;77.20;104320.50;5211373;28;19913;-56
2022/03/18 10:58:32;;;;;;;;;;;;;;;11.57;77.60;104322.19;5211501;28;19913;-59
2022/03/18 11:01:03;;;;;;;;;;;;;;;11.52;77.49;104322.75;5211514;28;20007;-59
2022/03/18 11:03:34;;;;;;;;;;;;;;;11.62;77.44;104326.06;5210937;28;19924;-55
2022/03/18 11:06:05;;;;;;;;;;;;;;;11.74;76.44;104329.19;5211366;28;19913;-58
2022/03/18 11:08:38;;;;;;;;;;;;;;;11.70;77.14;104319.75;5211121;28;20005;-58
2022/03/18 11:11:21;;;;;;;;;;;;;;;11.97;77.68;104316.53;5211172;28;20324;-55
2022/03/18 11:14:01;;;;;;;;;;;;;;;12.16;75.54;104307.91;5229285;28;19917;-58
2022/03/18 11:16:39;;;;;;;;;;;;;;;12.27;77.09;104316.63;5210865;28;19913;-58
2022/03/18 11:19:10;;;;;;;;;;;;;;;12.25;75.21;104319.53;5210764;28;19980;-60
2022/03/18 11:21:40;;;;;;;;;;;;;;;12.30;74.88;104322.53;5210955;28;20042;-57
2022/03/18 11:24:14;;;;;;;;;;;;;;;12.39;74.94;104321.44;5210844;28;19912;-57
2022/03/18 11:26:46;;;;;;;;;;;;;;;12.30;74.60;104316.28;5210772;28;19995;-56
2022/03/18 11:29:26;;;;;;;;;;;;;;;12.33;74.36;104310.50;5210448;28;19913;-57
2022/03/18 11:32:12;;;;;;;;;;;;;;;12.39;73.67;104299.75;5210272;28;19916;-59
2022/03/18 11:34:59;;;;;;;;;;;;;;;12.58;74.62;104295.66;5210090;28;19935;-60
2022/03/18 11:37:29;;;;;;;;;;;;;;;12.70;72.45;104299.63;5210107;28;20000;-56
2022/03/18 11:40:30;;;;;;;;;;;;;;;12.76;71.76;104306.97;5210020;28;19959;-59
2022/03/18 11:43:20;;;;;;;;;;;;;;;12.61;72.17;104297.16;5209983;28;19971;-55
2022/03/18 11:45:50;;;;;;;;;;;;;;;12.64;73.10;104297.63;5209674;28;19920;-56
2022/03/18 11:48:34;;;;;;;;;;;;;;;12.80;72.07;104294.72;5209902;28;19928;-55
2022/03/18 11:51:24;;;;;;;;;;;;;;;12.94;75.15;104294.94;5209819;28;19913;-56
2022/03/18 11:53:55;;;;;;;;;;;;;;;13.03;71.47;104291.06;5209667;28;20372;-58
2022/03/18 11:56:45;;;;;;;;;;;;;;;13.11;71.34;104288.25;5208549;28;20304;-58
2022/03/18 11:59:24;;;;;;;;;;;;;;;13.17;71.64;104272.09;5209956;28;20269;-58
2022/03/18 12:02:01;;;;;;;;;;;;;;;13.43;72.04;104277.00;5209855;28;19913;-58
2022/03/18 12:04:34;;;;;;;;;;;;;;;13.66;71.08;104273.25;5209414;28;20003;-59
2022/03/18 12:07:24;;;;;;;;;;;;;;;13.67;68.85;104270.34;5209375;28;20324;-58
2022/03/18 12:10:01;;;;;;;;;;;;;;;13.59;68.72;104267.75;5209383;28;19920;-58
2022/03/18 12:12:31;;;;;;;;;;;;;;;13.70;68.38;104269.13;5209266;28;20394;-62
2022/03/18 12:15:22;;;;;;;;;;;;;;;13.57;68.16;104266.28;5209050;28;19917;-58
2022/03/18 12:17:54;;;;;;;;;;;;;;;13.43;69.00;104266.13;5208893;28;19920;-58
2022/03/18 12:20:25;;;;;;;;;;;;;;;13.51;68.51;104266.00;5209069;28;19912;-57
2022/03/18 12:22:55;;;;;;;;;;;;;;;13.39;68.52;104272.97;5209026;28;19919;-59
2022/03/18 12:25:26;;;;;;;;;;;;;;;13.28;69.58;104264.50;5226427;28;19913;-59
2022/03/18 12:27:56;;;;;;;;;;;;;;;13.43;69.40;104263.41;5208793;28;20004;-59
2022/03/18 12:30:27;;;;;;;;;;;;;;;13.60;69.17;104257.72;5208992;28;19920;-58
2022/03/18 12:33:02;;;;;;;;;;;;;;;13.81;68.67;104255.88;5208883;28;19921;-59
2022/03/18 12:35:34;;;;;;;;;;;;;;;14.02;68.68;104254.16;5206424;28;20335;-59
2022/03/18 12:38:06;;;;;;;;;;;;;;;14.04;66.38;104254.81;5208592;28;19920;-58
2022/03/18 12:40:37;;;;;;;;;;;;;;;13.99;66.64;104252.66;5208425;28;19917;-56
2022/03/18 12:43:08;;;;;;;;;;;;;;;14.04;66.59;104247.50;5208736;28;19913;-58
2022/03/18 12:45:42;;;;;;;;;;;;;;;13.81;66.27;104257.75;5208353;28;19919;-58
2022/03/18 12:48:16;;;;;;;;;;;;;;;13.83;68.26;104245.66;5216028;28;19917;-59
2022/03/18 12:50:51;;;;;;;;;;;;;;;13.93;66.51;104252.59;5213824;28;20007;-58
2022/03/18 12:53:26;;;;;;;;;;;;;;;14.07;67.47;104252.53;5229116;28;19916;-59
2022/03/18 12:55:58;;;;;;;;;;;;;;;14.06;66.17;104255.44;5229475;28;19917;-59
2022/03/18 12:58:35;;;;;;;;;;;;;;;13.83;66.78;104248.38;5247490;28;19975;-58
2022/03/18 13:01:06;;;;;;;;;;;;;;;13.82;67.07;104243.97;5229713;28;19920;-58
2022/03/18 13:03:37;;;;;;;;;;;;;;;13.94;67.61;104244.25;5228612;28;20241;-58
2022/03/18 13:06:18;;;;;;;;;;;;;;;14.06;67.32;104236.44;5228406;28;19920;-58
2022/03/18 13:08:50;;;;;;;;;;;;;;;14.23;67.28;104235.09;5228854;28;20261;-59
2022/03/18 13:11:21;;;;;;;;;;;;;;;14.48;65.64;104243.63;5228718;28;19916;-57
2022/03/18 13:13:53;;;;;;;;;;;;;;;14.24;65.26;104234.03;5246409;28;20441;-58
2022/03/18 13:16:24;;;;;;;;;;;;;;;13.99;65.36;104230.09;5228940;28;19913;-58
2022/03/18 13:18:58;;;;;;;;;;;;;;;14.12;66.28;104224.78;5228926;28;19948;-58